Time;durP1;ratioP1;P1;durP2;ratioP2;P2;SDS_P1;SDS_P2;PMS_P1;PMS_P2;Temp;Humidity;BMP_temperature;BMP_pressure;BME280_temperature;BME280_humidity;BME280_pressure;Samples;Min_cycle;Max_cycle;Signal;HPM_P1;HPM_P2
2022/11/28 00:00:53;;;;;;;9.95;8.95;;;;;;;;;;5012791;28;20414;-79
2022/11/28 00:03:18;;;;;;;8.40;7.60;;;;;;;;;;4996005;28;20481;-78
2022/11/28 00:05:44;;;;;;;8.90;7.63;;;;;;;;;;5004586;28;20035;-78
2022/11/28 00:08:09;;;;;;;8.68;7.88;;;;;;;;;;4997485;28;20041;-79
2022/11/28 00:10:40;;;;;;;8.63;7.60;;;;;;;;;;4997186;28;20156;-77
2022/11/28 00:13:05;;;;;;;9.75;8.85;;;;;;;;;;5003897;28;20046;-77
2022/11/28 00:15:31;;;;;;;9.82;8.90;;;;;;;;;;5014208;28;20053;-77
2022/11/28 00:17:56;;;;;;;10.73;9.63;;;;;;;;;;5014754;28;20046;-77
2022/11/28 00:20:22;;;;;;;9.60;8.60;;;;;;;;;;5012707;28;20037;-77
2022/11/28 00:22:48;;;;;;;9.85;8.85;;;;;;;;;;5012516;28;20165;-77
2022/11/28 00:25:14;;;;;;;9.38;8.48;;;;;;;;;;5007588;28;20046;-78
2022/11/28 00:27:39;;;;;;;10.13;9.23;;;;;;;;;;5014418;28;20033;-75
2022/11/28 00:30:06;;;;;;;13.43;8.82;;;;;;;;;;4997098;28;20069;-77
2022/11/28 00:32:35;;;;;;;9.52;8.63;;;;;;;;;;5013130;28;20026;-77
2022/11/28 00:35:01;;;;;;;10.02;8.95;;;;;;;;;;4997788;28;20026;-76
2022/11/28 00:37:27;;;;;;;11.93;9.60;;;;;;;;;;5014244;28;20061;-77
2022/11/28 00:39:52;;;;;;;10.35;9.25;;;;;;;;;;4997513;28;20046;-79
2022/11/28 00:42:20;;;;;;;11.15;9.32;;;;;;;;;;4996014;28;20030;-78
2022/11/28 00:44:48;;;;;;;10.25;9.25;;;;;;;;;;4997026;28;20177;-79
2022/11/28 00:47:14;;;;;;;10.00;9.00;;;;;;;;;;4993454;28;20030;-78
2022/11/28 00:49:40;;;;;;;10.77;9.68;;;;;;;;;;4990502;28;20102;-79
2022/11/28 00:52:05;;;;;;;11.35;10.20;;;;;;;;;;4996466;28;20054;-79
2022/11/28 00:54:31;;;;;;;10.88;9.90;;;;;;;;;;4996093;28;20038;-78
2022/11/28 00:56:56;;;;;;;11.05;9.88;;;;;;;;;;4991602;28;20116;-78
2022/11/28 00:59:22;;;;;;;10.85;9.80;;;;;;;;;;4997358;28;20058;-78
2022/11/28 01:01:47;;;;;;;11.20;9.85;;;;;;;;;;4994382;28;20038;-79
2022/11/28 01:04:16;;;;;;;11.13;10.02;;;;;;;;;;4995956;28;20137;-79
2022/11/28 01:06:49;;;;;;;10.10;9.13;;;;;;;;;;4995408;28;20050;-79
2022/11/28 01:09:18;;;;;;;11.40;9.73;;;;;;;;;;4995032;28;20109;-78
2022/11/28 01:11:45;;;;;;;10.55;9.55;;;;;;;;;;4995549;28;20034;-79
2022/11/28 01:14:11;;;;;;;10.30;9.27;;;;;;;;;;4993976;28;20048;-79
2022/11/28 01:16:37;;;;;;;12.00;10.77;;;;;;;;;;4997063;28;20040;-79
2022/11/28 01:19:04;;;;;;;10.77;9.68;;;;;;;;;;4995099;28;20097;-79
2022/11/28 01:21:30;;;;;;;11.50;10.32;;;;;;;;;;4997667;28;20073;-79
2022/11/28 01:23:56;;;;;;;10.82;9.77;;;;;;;;;;4993364;28;20090;-79
2022/11/28 01:26:26;;;;;;;10.32;9.38;;;;;;;;;;4996647;28;20037;-78
2022/11/28 01:28:52;;;;;;;11.10;9.57;;;;;;;;;;4996944;28;20045;-79
2022/11/28 01:31:21;;;;;;;11.65;9.70;;;;;;;;;;4995094;28;20048;-79
2022/11/28 01:33:47;;;;;;;11.23;10.07;;;;;;;;;;4994140;28;20034;-79
2022/11/28 01:36:13;;;;;;;12.13;9.77;;;;;;;;;;4996020;28;20030;-79
2022/11/28 01:38:40;;;;;;;9.65;8.65;;;;;;;;;;4993487;28;20094;-78
2022/11/28 01:41:06;;;;;;;9.98;9.00;;;;;;;;;;4993476;28;20065;-79
2022/11/28 01:43:32;;;;;;;11.45;10.23;;;;;;;;;;4996355;28;20550;-78
2022/11/28 01:45:58;;;;;;;11.25;10.07;;;;;;;;;;4993893;28;20629;-78
2022/11/28 01:48:27;;;;;;;11.18;8.82;;;;;;;;;;4993626;28;20026;-79
2022/11/28 01:50:55;;;;;;;;;;;;;;;;;;4995489;28;20046;-79
2022/11/28 01:53:22;;;;;;;12.32;9.13;;;;;;;;;;4993564;28;20380;-78
2022/11/28 01:56:12;;;;;;;8.45;7.60;;;;;;;;;;4993173;28;20034;-78
2022/11/28 01:58:41;;;;;;;8.57;7.88;;;;;;;;;;4995436;28;20062;-78
2022/11/28 02:01:08;;;;;;;9.48;8.55;;;;;;;;;;4995586;28;20042;-78
2022/11/28 02:03:41;;;;;;;9.60;8.75;;;;;;;;;;4993336;28;20042;-78
2022/11/28 02:06:08;;;;;;;10.00;9.00;;;;;;;;;;4994150;28;20049;-78
2022/11/28 02:08:35;;;;;;;8.23;7.53;;;;;;;;;;4980730;28;20050;-78
2022/11/28 02:11:39;;;;;;;8.73;8.02;;;;;;;;;;4998798;28;20030;-79
2022/11/28 02:14:22;;;;;;;9.10;8.27;;;;;;;;;;4973004;28;20035;-79
2022/11/28 02:17:06;;;;;;;9.15;8.30;;;;;;;;;;4973955;28;20042;-78
2022/11/28 02:19:54;;;;;;;7.93;7.18;;;;;;;;;;4974244;28;20493;-79
2022/11/28 02:22:46;;;;;;;9.13;8.27;;;;;;;;;;4974276;28;20054;-78
2022/11/28 02:25:25;;;;;;;8.45;7.65;;;;;;;;;;4976656;28;20142;-79
2022/11/28 02:27:58;;;;;;;;;;;;;;;;;;4974357;28;20108;-79
2022/11/28 02:30:52;;;;;;;8.77;8.07;;;;;;;;;;4976212;28;19922;-79
2022/11/28 02:33:30;;;;;;;9.07;8.10;;;;;;;;;;4974925;28;20054;-79
2022/11/28 02:36:02;;;;;;;9.17;8.40;;;;;;;;;;4974684;28;20108;-78
2022/11/28 02:38:43;;;;;;;14.70;7.75;;;;;;;;;;4974019;28;20058;-78
2022/11/28 02:41:32;;;;;;;6.15;5.65;;;;;;;;;;4973438;28;20572;-78
2022/11/28 02:44:07;;;;;;;7.82;7.15;;;;;;;;;;4975546;28;20063;-79
2022/11/28 02:46:59;;;;;;;7.32;6.68;;;;;;;;;;4992954;28;20133;-78
2022/11/28 02:49:31;;;;;;;8.45;7.57;;;;;;;;;;4996935;28;20034;-78
2022/11/28 02:52:06;;;;;;;8.95;8.15;;;;;;;;;;5010444;28;20030;-78
2022/11/28 02:54:33;;;;;;;8.05;7.45;;;;;;;;;;4993529;28;20030;-78
2022/11/28 02:56:58;;;;;;;7.97;7.38;;;;;;;;;;4995628;28;20687;-79
2022/11/28 02:59:47;;;;;;;8.32;7.63;;;;;;;;;;4996665;28;20056;-78
2022/11/28 03:02:17;;;;;;;9.43;6.90;;;;;;;;;;4993663;28;20038;-79
2022/11/28 03:05:03;;;;;;;15.32;7.15;;;;;;;;;;4994699;28;20424;-78
2022/11/28 03:07:51;;;;;;;8.40;7.60;;;;;;;;;;4995320;28;20505;-77
2022/11/28 03:10:40;;;;;;;9.13;8.32;;;;;;;;;;4984112;28;20093;-78
2022/11/28 03:13:19;;;;;;;7.50;6.95;;;;;;;;;;5001528;28;20026;-77
2022/11/28 03:15:57;;;;;;;8.48;7.65;;;;;;;;;;4997094;28;20069;-79
2022/11/28 03:18:29;;;;;;;8.60;7.80;;;;;;;;;;4994632;28;20118;-79
2022/11/28 03:21:12;;;;;;;8.98;6.95;;;;;;;;;;4993013;28;20038;-79
2022/11/28 03:23:45;;;;;;;9.00;8.10;;;;;;;;;;4994267;28;20081;-78
2022/11/28 03:26:22;;;;;;;10.30;8.93;;;;;;;;;;4991422;28;20038;-78
2022/11/28 03:28:53;;;;;;;8.07;7.30;;;;;;;;;;4990518;28;20073;-79
2022/11/28 03:31:26;;;;;;;10.18;9.00;;;;;;;;;;4994613;28;20125;-79
2022/11/28 03:33:57;;;;;;;10.23;8.15;;;;;;;;;;4995014;28;20493;-79
2022/11/28 03:36:28;;;;;;;7.30;6.70;;;;;;;;;;5004125;28;20038;-79
2022/11/28 03:38:59;;;;;;;6.57;6.10;;;;;;;;;;4996075;28;20030;-79
2022/11/28 03:42:02;;;;;;;8.25;7.45;;;;;;;;;;4994996;28;20057;-78
2022/11/28 03:44:34;;;;;;;9.30;8.20;;;;;;;;;;4993463;28;20125;-79
2022/11/28 03:47:01;;;;;;;8.63;7.75;;;;;;;;;;4992627;28;20057;-78
2022/11/28 03:49:32;;;;;;;8.60;7.80;;;;;;;;;;4995831;28;20599;-79
2022/11/28 03:52:02;;;;;;;9.85;8.90;;;;;;;;;;4995265;28;20038;-79
2022/11/28 03:54:35;;;;;;;10.43;9.32;;;;;;;;;;4992871;28;20038;-79
2022/11/28 03:57:27;;;;;;;10.48;9.25;;;;;;;;;;4992619;28;20592;-78
2022/11/28 03:59:55;;;;;;;10.18;9.13;;;;;;;;;;4993522;28;20045;-78
2022/11/28 04:02:24;;;;;;;11.25;10.02;;;;;;;;;;4992431;28;21049;-79
2022/11/28 04:05:14;;;;;;;12.95;11.13;;;;;;;;;;4989351;28;20054;-78
2022/11/28 04:08:20;;;;;;;11.05;9.68;;;;;;;;;;4995729;28;20041;-79
2022/11/28 04:11:18;;;;;;;9.70;8.80;;;;;;;;;;4950880;29;20039;-78
2022/11/28 04:13:58;;;;;;;12.98;9.63;;;;;;;;;;4860442;29;20486;-79
2022/11/28 04:16:33;;;;;;;8.73;7.82;;;;;;;;;;4860355;29;20056;-79
2022/11/28 04:19:14;;;;;;;9.98;8.98;;;;;;;;;;4857982;29;20054;-79
2022/11/28 04:21:50;;;;;;;8.73;7.85;;;;;;;;;;4860607;29;20140;-78
2022/11/28 04:24:24;;;;;;;10.48;9.05;;;;;;;;;;4860497;29;20061;-78
2022/11/28 04:27:16;;;;;;;9.80;8.90;;;;;;;;;;4859305;29;20072;-79
2022/11/28 04:29:55;;;;;;;10.88;9.52;;;;;;;;;;4860088;29;20068;-79
2022/11/28 04:32:22;;;;;;;10.23;8.95;;;;;;;;;;4845439;29;20079;-78
2022/11/28 04:34:55;;;;;;;10.52;8.63;;;;;;;;;;4845505;29;20053;-79
2022/11/28 04:37:23;;;;;;;9.38;8.38;;;;;;;;;;4858468;29;20585;-78
2022/11/28 04:39:51;;;;;;;9.27;8.38;;;;;;;;;;4860429;29;20509;-78
2022/11/28 04:42:22;;;;;;;9.82;8.77;;;;;;;;;;4860246;29;20048;-79
2022/11/28 04:45:12;;;;;;;9.77;8.88;;;;;;;;;;4860497;29;20045;-79
2022/11/28 04:47:38;;;;;;;10.50;9.13;;;;;;;;;;4891000;29;20511;-79
2022/11/28 04:50:05;;;;;;;9.73;8.73;;;;;;;;;;4955307;28;20054;-79
2022/11/28 04:53:09;;;;;;;9.32;8.13;;;;;;;;;;4995389;28;20030;-78
2022/11/28 04:55:44;;;;;;;9.45;7.95;;;;;;;;;;4992271;28;20573;-79
2022/11/28 04:58:21;;;;;;;9.30;8.40;;;;;;;;;;4995044;28;20082;-78
2022/11/28 05:00:49;;;;;;;7.25;6.68;;;;;;;;;;4993055;28;20027;-78
2022/11/28 05:03:15;;;;;;;7.93;7.22;;;;;;;;;;4995018;28;20034;-78
2022/11/28 05:05:47;;;;;;;8.70;7.82;;;;;;;;;;4993926;28;20026;-79
2022/11/28 05:08:14;;;;;;;9.98;8.98;;;;;;;;;;4993390;28;20042;-79
2022/11/28 05:10:40;;;;;;;9.75;8.90;;;;;;;;;;4991627;28;20034;-78
2022/11/28 05:13:05;;;;;;;9.50;8.80;;;;;;;;;;4977898;28;20046;-78
2022/11/28 05:15:31;;;;;;;7.28;6.78;;;;;;;;;;4995529;28;20026;-78
2022/11/28 05:17:56;;;;;;;9.57;8.63;;;;;;;;;;4995529;28;20069;-78
2022/11/28 05:20:22;;;;;;;9.52;8.73;;;;;;;;;;4993158;28;20022;-78
2022/11/28 05:22:48;;;;;;;11.13;9.90;;;;;;;;;;4991729;28;20516;-79
2022/11/28 05:25:14;;;;;;;8.93;8.05;;;;;;;;;;4991279;28;20046;-79
2022/11/28 05:27:39;;;;;;;7.22;6.72;;;;;;;;;;4993461;28;20791;-79
2022/11/28 05:30:06;;;;;;;9.25;8.35;;;;;;;;;;4995624;28;20035;-79
2022/11/28 05:32:32;;;;;;;10.45;9.07;;;;;;;;;;4994594;28;20093;-79
2022/11/28 05:34:57;;;;;;;12.45;9.80;;;;;;;;;;4991794;28;20034;-79
2022/11/28 05:37:24;;;;;;;9.10;8.25;;;;;;;;;;4992045;28;20401;-79
2022/11/28 05:39:50;;;;;;;9.40;8.48;;;;;;;;;;4995524;28;20038;-79
2022/11/28 05:42:16;;;;;;;8.57;7.68;;;;;;;;;;4995306;28;20035;-79
2022/11/28 05:44:42;;;;;;;10.52;9.57;;;;;;;;;;4992744;28;20556;-77
2022/11/28 05:47:07;;;;;;;10.00;9.00;;;;;;;;;;4979836;28;20034;-79
2022/11/28 05:49:33;;;;;;;8.13;7.47;;;;;;;;;;4979028;28;20168;-78
2022/11/28 05:51:59;;;;;;;9.80;8.88;;;;;;;;;;4977992;28;20524;-79
2022/11/28 05:54:24;;;;;;;10.43;9.43;;;;;;;;;;4979573;28;20035;-79
2022/11/28 05:56:50;;;;;;;7.80;6.40;;;;;;;;;;4982548;28;20121;-80
2022/11/28 05:59:15;;;;;;;9.30;8.40;;;;;;;;;;4979065;28;20043;-78
2022/11/28 06:01:41;;;;;;;10.65;9.63;;;;;;;;;;4980277;28;20062;-79
2022/11/28 06:04:07;;;;;;;11.63;9.18;;;;;;;;;;4979368;28;20422;-80
2022/11/28 06:06:34;;;;;;;8.77;8.00;;;;;;;;;;4978994;28;20291;-79
2022/11/28 06:09:00;;;;;;;12.93;10.18;;;;;;;;;;4984735;28;20031;-79
2022/11/28 06:11:28;;;;;;;12.68;9.95;;;;;;;;;;4981020;28;20038;-79
2022/11/28 06:13:54;;;;;;;11.05;10.05;;;;;;;;;;4980209;28;20054;-79
2022/11/28 06:16:25;;;;;;;8.25;7.60;;;;;;;;;;4980058;28;20054;-78
2022/11/28 06:18:56;;;;;;;10.93;9.55;;;;;;;;;;4979390;28;20062;-79
2022/11/28 06:21:22;;;;;;;13.85;10.52;;;;;;;;;;4982093;28;20031;-78
2022/11/28 06:23:48;;;;;;;11.82;10.23;;;;;;;;;;4978581;28;20121;-79
2022/11/28 06:26:17;;;;;;;11.63;10.32;;;;;;;;;;4972947;28;20090;-79
2022/11/28 06:28:42;;;;;;;12.73;10.73;;;;;;;;;;4980386;28;20034;-77
2022/11/28 06:31:10;;;;;;;13.93;11.15;;;;;;;;;;4981473;28;20122;-78
2022/11/28 06:33:36;;;;;;;10.32;9.30;;;;;;;;;;4963937;28;20490;-78
2022/11/28 06:36:03;;;;;;;10.27;9.27;;;;;;;;;;4977783;28;20041;-77
2022/11/28 06:38:30;;;;;;;11.20;10.20;;;;;;;;;;4976363;28;20123;-78
2022/11/28 06:41:00;;;;;;;11.75;10.55;;;;;;;;;;4981722;28;20561;-77
2022/11/28 06:43:26;;;;;;;10.93;9.82;;;;;;;;;;4974111;28;20082;-77
2022/11/28 06:45:52;;;;;;;11.18;10.15;;;;;;;;;;4975694;28;20038;-78
2022/11/28 06:48:19;;;;;;;10.40;9.30;;;;;;;;;;4982246;28;20041;-78
2022/11/28 06:50:44;;;;;;;8.23;7.55;;;;;;;;;;4979787;28;20066;-78
2022/11/28 06:53:10;;;;;;;7.80;7.18;;;;;;;;;;4977808;28;20030;-78
2022/11/28 06:55:35;;;;;;;9.95;9.13;;;;;;;;;;4979970;28;20026;-77
2022/11/28 06:58:01;;;;;;;11.00;9.90;;;;;;;;;;4978978;28;20050;-77
2022/11/28 07:00:26;;;;;;;12.57;9.95;;;;;;;;;;5002826;28;20485;-78
2022/11/28 07:02:52;;;;;;;10.07;8.80;;;;;;;;;;4980764;28;20050;-78
2022/11/28 07:05:19;;;;;;;11.65;10.40;;;;;;;;;;4980743;28;20038;-78
2022/11/28 07:07:44;;;;;;;10.40;9.45;;;;;;;;;;4979255;28;20544;-78
2022/11/28 07:10:11;;;;;;;20.65;13.00;;;;;;;;;;4979147;28;20031;-78
2022/11/28 07:12:36;;;;;;;11.73;10.10;;;;;;;;;;4979654;28;20429;-77
2022/11/28 07:15:03;;;;;;;10.82;9.57;;;;;;;;;;4979482;28;20058;-78
2022/11/28 07:17:29;;;;;;;10.98;9.73;;;;;;;;;;4979166;28;20053;-78
2022/11/28 07:19:54;;;;;;;11.38;10.15;;;;;;;;;;4978476;28;20502;-78
2022/11/28 07:22:21;;;;;;;11.48;10.35;;;;;;;;;;4982376;28;20038;-77
2022/11/28 07:24:47;;;;;;;13.48;11.38;;;;;;;;;;4981314;28;20522;-78
2022/11/28 07:27:13;;;;;;;22.95;14.38;;;;;;;;;;4978962;28;20824;-77
2022/11/28 07:29:38;;;;;;;19.05;13.85;;;;;;;;;;4983641;28;20039;-78
2022/11/28 07:32:06;;;;;;;16.17;12.45;;;;;;;;;;4982843;28;20417;-77
2022/11/28 07:34:32;;;;;;;15.55;11.55;;;;;;;;;;4982758;28;20042;-78
2022/11/28 07:36:58;;;;;;;15.93;12.77;;;;;;;;;;4977939;28;20042;-77
2022/11/28 07:39:23;;;;;;;22.48;16.85;;;;;;;;;;4979467;28;20035;-77
2022/11/28 07:41:49;;;;;;;14.65;12.45;;;;;;;;;;4975924;28;20031;-77
2022/11/28 07:44:16;;;;;;;15.02;11.60;;;;;;;;;;4980407;28;20038;-78
2022/11/28 07:46:43;;;;;;;11.50;10.35;;;;;;;;;;4977833;28;20031;-78
2022/11/28 07:49:09;;;;;;;11.27;10.18;;;;;;;;;;4980857;28;20046;-78
2022/11/28 07:51:35;;;;;;;11.38;10.23;;;;;;;;;;4977544;28;20023;-77
2022/11/28 07:54:03;;;;;;;9.63;8.73;;;;;;;;;;4976816;28;20509;-77
2022/11/28 07:56:31;;;;;;;12.20;10.07;;;;;;;;;;4977256;28;20032;-78
2022/11/28 07:58:58;;;;;;;42.85;21.88;;;;;;;;;;4980909;28;20103;-78
2022/11/28 08:01:27;;;;;;;15.68;11.45;;;;;;;;;;4979239;28;20094;-78
2022/11/28 08:03:54;;;;;;;14.65;11.38;;;;;;;;;;4977416;28;20545;-77
2022/11/28 08:06:21;;;;;;;18.05;12.77;;;;;;;;;;4982421;28;20043;-77
2022/11/28 08:08:48;;;;;;;13.05;11.07;;;;;;;;;;4981674;28;20027;-78
2022/11/28 08:11:15;;;;;;;21.77;13.43;;;;;;;;;;4982430;28;20391;-77
2022/11/28 08:13:41;;;;;;;15.52;12.15;;;;;;;;;;4979853;28;20035;-78
2022/11/28 08:16:10;;;;;;;17.98;13.52;;;;;;;;;;4980483;28;20042;-78
2022/11/28 08:18:36;;;;;;;15.63;12.43;;;;;;;;;;4980789;28;20062;-78
2022/11/28 08:21:20;;;;;;;11.95;10.70;;;;;;;;;;4977464;28;20114;-78
2022/11/28 08:23:46;;;;;;;13.48;11.60;;;;;;;;;;4974160;28;20062;-77
2022/11/28 08:26:15;;;;;;;19.10;12.38;;;;;;;;;;4979576;28;20434;-78
2022/11/28 08:28:42;;;;;;;13.15;10.55;;;;;;;;;;4979320;28;20046;-77
2022/11/28 08:31:11;;;;;;;14.20;11.20;;;;;;;;;;4982641;28;20038;-77
2022/11/28 08:33:38;;;;;;;14.45;10.75;;;;;;;;;;4978454;28;20058;-77
2022/11/28 08:36:08;;;;;;;13.35;10.68;;;;;;;;;;4979008;28;20098;-77
2022/11/28 08:38:34;;;;;;;18.80;12.93;;;;;;;;;;4977568;28;20043;-76
2022/11/28 08:41:04;;;;;;;10.93;9.85;;;;;;;;;;4978459;28;20037;-76
2022/11/28 08:43:30;;;;;;;13.63;11.43;;;;;;;;;;4983119;28;20039;-77
2022/11/28 08:45:56;;;;;;;13.00;11.30;;;;;;;;;;4980587;28;20041;-77
2022/11/28 08:48:24;;;;;;;18.63;13.65;;;;;;;;;;4978912;28;20058;-77
2022/11/28 08:50:50;;;;;;;14.77;12.48;;;;;;;;;;4977003;28;20027;-78
2022/11/28 08:53:16;;;;;;;23.20;15.38;;;;;;;;;;4988102;28;20038;-77
2022/11/28 08:55:43;;;;;;;13.10;11.80;;;;;;;;;;4972264;28;20030;-78
2022/11/28 08:58:10;;;;;;;15.52;12.85;;;;;;;;;;4967048;28;20062;-77
2022/11/28 09:00:37;;;;;;;11.43;10.35;;;;;;;;;;4968796;28;20030;-77
2022/11/28 09:03:03;;;;;;;14.38;11.45;;;;;;;;;;4971222;28;20081;-77
2022/11/28 09:05:29;;;;;;;13.35;10.27;;;;;;;;;;4969886;28;20081;-77
2022/11/28 09:07:56;;;;;;;10.48;9.55;;;;;;;;;;4965621;28;20030;-77
2022/11/28 09:10:22;;;;;;;11.52;10.32;;;;;;;;;;4971019;28;20105;-78
2022/11/28 09:12:48;;;;;;;11.98;10.73;;;;;;;;;;4973398;28;20046;-76
2022/11/28 09:15:13;;;;;;;14.35;11.30;;;;;;;;;;4969425;28;20030;-77
2022/11/28 09:17:39;;;;;;;9.80;8.98;;;;;;;;;;4972218;28;20034;-77
2022/11/28 09:20:05;;;;;;;11.32;10.32;;;;;;;;;;4971998;28;20066;-77
2022/11/28 09:22:31;;;;;;;11.60;10.50;;;;;;;;;;4970832;28;20039;-77
2022/11/28 09:24:57;;;;;;;14.25;10.32;;;;;;;;;;4968120;28;20093;-77
2022/11/28 09:27:23;;;;;;;11.57;10.50;;;;;;;;;;4970119;28;20039;-77
2022/11/28 09:29:48;;;;;;;12.13;10.70;;;;;;;;;;4974825;28;20157;-77
2022/11/28 09:32:14;;;;;;;10.43;9.48;;;;;;;;;;4963994;28;20649;-77
2022/11/28 09:34:39;;;;;;;12.95;11.60;;;;;;;;;;4971273;28;20089;-77
2022/11/28 09:37:05;;;;;;;12.65;11.40;;;;;;;;;;4974106;28;20038;-78
2022/11/28 09:39:31;;;;;;;12.73;11.20;;;;;;;;;;4977842;28;20035;-78
2022/11/28 09:42:05;;;;;;;17.08;12.48;;;;;;;;;;4974330;28;20050;-78
2022/11/28 09:45:00;;;;;;;15.65;10.80;;;;;;;;;;4978228;28;20098;-79
2022/11/28 09:47:31;;;;;;;12.07;10.52;;;;;;;;;;4971428;28;20525;-78
2022/11/28 09:50:09;;;;;;;11.93;10.55;;;;;;;;;;4971563;28;20045;-78
2022/11/28 09:52:50;;;;;;;12.32;11.20;;;;;;;;;;4969757;28;20043;-76
2022/11/28 09:55:35;;;;;;;12.05;10.23;;;;;;;;;;5002711;28;20097;-78
2022/11/28 09:58:10;;;;;;;12.80;11.50;;;;;;;;;;4978039;28;20043;-79
2022/11/28 10:00:40;;;;;;;14.18;10.93;;;;;;;;;;4974448;28;20469;-78
2022/11/28 10:03:15;;;;;;;12.18;10.88;;;;;;;;;;4977681;28;20038;-78
2022/11/28 10:05:59;;;;;;;18.10;10.75;;;;;;;;;;4977667;28;20580;-78
2022/11/28 10:08:47;;;;;;;10.98;9.98;;;;;;;;;;4978083;28;20065;-78
2022/11/28 10:11:32;;;;;;;12.90;10.95;;;;;;;;;;4965157;28;20121;-77
2022/11/28 10:14:18;;;;;;;12.30;11.15;;;;;;;;;;4978173;28;20426;-77
2022/11/28 10:16:53;;;;;;;12.70;10.82;;;;;;;;;;4977900;28;20129;-77
2022/11/28 10:19:42;;;;;;;11.50;10.35;;;;;;;;;;4975371;28;20076;-77
2022/11/28 10:22:15;;;;;;;;;;;;;;;;;;4979330;28;20701;-77
2022/11/28 10:24:50;;;;;;;11.50;10.40;;;;;;;;;;4979064;28;19914;-78
2022/11/28 10:27:16;;;;;;;28.65;14.52;;;;;;;;;;4979877;28;20515;-78
2022/11/28 10:30:00;;;;;;;13.65;11.85;;;;;;;;;;4979090;28;20031;-77
2022/11/28 10:32:32;;;;;;;17.23;14.20;;;;;;;;;;4977318;28;20038;-78
2022/11/28 10:35:03;;;;;;;13.27;11.98;;;;;;;;;;4980959;28;20119;-77
2022/11/28 10:37:31;;;;;;;13.98;11.30;;;;;;;;;;4972894;28;20419;-78
2022/11/28 10:40:19;;;;;;;13.98;11.30;;;;;;;;;;4980753;28;20026;-78
2022/11/28 10:42:51;;;;;;;12.20;10.90;;;;;;;;;;4977088;28;20204;-77
2022/11/28 10:45:30;;;;;;;11.75;10.50;;;;;;;;;;4979601;28;20049;-78
2022/11/28 10:48:07;;;;;;;24.20;14.52;;;;;;;;;;4982316;28;20121;-78
2022/11/28 10:50:39;;;;;;;12.75;10.68;;;;;;;;;;4978216;28;20033;-78
2022/11/28 10:53:35;;;;;;;11.85;10.68;;;;;;;;;;4980933;28;20042;-78
2022/11/28 10:56:08;;;;;;;12.73;11.38;;;;;;;;;;4976963;28;20074;-77
2022/11/28 10:58:52;;;;;;;13.10;11.73;;;;;;;;;;4984003;28;20102;-78
2022/11/28 11:01:17;;;;;;;12.43;10.70;;;;;;;;;;5006458;28;20027;-78
2022/11/28 11:03:43;;;;;;;11.35;10.25;;;;;;;;;;4982755;28;20071;-77
2022/11/28 11:06:08;;;;;;;17.10;11.10;;;;;;;;;;4982629;28;20443;-77
2022/11/28 11:08:36;;;;;;;13.93;11.63;;;;;;;;;;4979143;28;20031;-78
2022/11/28 11:11:29;;;;;;;13.80;11.93;;;;;;;;;;4978354;28;20031;-78
2022/11/28 11:14:07;;;;;;;12.77;10.75;;;;;;;;;;4983692;28;20049;-78
2022/11/28 11:17:05;;;;;;;11.60;10.40;;;;;;;;;;4979073;28;20034;-78
2022/11/28 11:19:33;;;;;;;10.13;8.65;;;;;;;;;;4947443;29;20059;-77
2022/11/28 11:22:08;;;;;;;12.05;10.38;;;;;;;;;;4955544;29;20054;-77
2022/11/28 11:24:33;;;;;;;10.93;9.63;;;;;;;;;;4956082;29;20103;-77
2022/11/28 11:27:20;;;;;;;11.55;10.35;;;;;;;;;;4957981;29;20121;-78
2022/11/28 11:29:46;;;;;;;11.80;10.50;;;;;;;;;;4951268;29;20079;-78
2022/11/28 11:32:22;;;;;;;10.75;9.75;;;;;;;;;;4958708;29;20039;-77
2022/11/28 11:34:48;;;;;;;14.80;10.23;;;;;;;;;;4951354;29;20475;-78
2022/11/28 11:37:32;;;;;;;11.43;9.70;;;;;;;;;;4952613;28;20047;-77
2022/11/28 11:39:59;;;;;;;12.23;9.50;;;;;;;;;;4950397;29;20035;-78
2022/11/28 11:42:31;;;;;;;12.05;9.82;;;;;;;;;;4954755;29;20059;-78
2022/11/28 11:45:24;;;;;;;10.57;9.48;;;;;;;;;;4954399;29;20040;-78
2022/11/28 11:47:49;;;;;;;12.18;10.52;;;;;;;;;;4945545;29;20535;-77
2022/11/28 11:50:21;;;;;;;11.95;10.80;;;;;;;;;;4948337;29;20043;-77
2022/11/28 11:53:09;;;;;;;15.57;11.88;;;;;;;;;;4954039;29;20047;-78
2022/11/28 11:55:57;;;;;;;24.10;13.20;;;;;;;;;;4963151;28;20093;-77
2022/11/28 11:58:50;;;;;;;23.85;14.38;;;;;;;;;;4974293;28;20313;-78
2022/11/28 12:01:18;;;;;;;12.73;11.30;;;;;;;;;;4972126;28;20058;-78
2022/11/28 12:04:06;;;;;;;13.73;12.18;;;;;;;;;;4975731;28;20038;-77
2022/11/28 12:06:37;;;;;;;14.18;12.15;;;;;;;;;;4974904;28;20193;-77
2022/11/28 12:09:08;;;;;;;17.65;13.18;;;;;;;;;;4977562;28;20035;-77
2022/11/28 12:11:43;;;;;;;16.08;13.02;;;;;;;;;;4978131;28;20054;-77
2022/11/28 12:14:26;;;;;;;16.45;13.05;;;;;;;;;;4974743;28;20047;-78
2022/11/28 12:17:10;;;;;;;16.52;12.35;;;;;;;;;;4976020;28;20042;-77
2022/11/28 12:20:00;;;;;;;17.77;13.80;;;;;;;;;;4974193;28;20169;-77
2022/11/28 12:22:44;;;;;;;24.65;15.18;;;;;;;;;;4971224;28;20085;-78
2022/11/28 12:25:31;;;;;;;29.40;15.45;;;;;;;;;;4974288;28;20553;-78
2022/11/28 12:28:18;;;;;;;17.02;12.07;;;;;;;;;;4980259;28;20039;-77
2022/11/28 12:30:56;;;;;;;13.23;11.57;;;;;;;;;;4977611;28;20034;-78
2022/11/28 12:33:26;;;;;;;13.18;11.80;;;;;;;;;;4976267;28;20050;-77
2022/11/28 12:35:58;;;;;;;13.38;10.90;;;;;;;;;;4976127;28;20076;-78
2022/11/28 12:38:35;;;;;;;11.60;10.40;;;;;;;;;;4974604;28;20544;-78
2022/11/28 12:41:00;;;;;;;14.18;12.18;;;;;;;;;;4976711;28;20042;-78
2022/11/28 12:43:51;;;;;;;13.85;12.45;;;;;;;;;;4980383;28;20026;-77
2022/11/28 12:46:33;;;;;;;12.38;11.18;;;;;;;;;;4986604;28;20074;-78
2022/11/28 12:49:17;;;;;;;12.75;11.45;;;;;;;;;;4982378;28;20522;-78
2022/11/28 12:51:57;;;;;;;12.32;11.10;;;;;;;;;;4981926;28;20039;-79
2022/11/28 12:54:48;;;;;;;14.40;12.00;;;;;;;;;;4981067;28;20039;-77
2022/11/28 12:57:40;;;;;;;16.63;11.25;;;;;;;;;;4973501;28;20062;-78
2022/11/28 13:00:17;;;;;;;20.48;12.18;;;;;;;;;;4970093;28;20047;-77
2022/11/28 13:03:02;;;;;;;15.77;11.93;;;;;;;;;;4976326;28;20760;-78
2022/11/28 13:05:34;;;;;;;16.33;11.15;;;;;;;;;;4975036;28;20154;-78
2022/11/28 13:08:16;;;;;;;16.30;11.77;;;;;;;;;;4972662;28;20560;-77
2022/11/28 13:10:51;;;;;;;15.85;11.82;;;;;;;;;;4967050;28;20039;-78
2022/11/28 13:13:30;;;;;;;17.02;12.95;;;;;;;;;;4982985;28;20038;-77
2022/11/28 13:16:17;;;;;;;13.57;12.25;;;;;;;;;;4987049;28;20043;-77
2022/11/28 13:18:47;;;;;;;15.45;13.68;;;;;;;;;;5009954;28;20066;-77
2022/11/28 13:21:34;;;;;;;18.08;13.32;;;;;;;;;;4990418;28;20094;-76
2022/11/28 13:24:26;;;;;;;14.52;11.23;;;;;;;;;;4981780;28;20050;-77
2022/11/28 13:27:32;;;;;;;12.10;10.90;;;;;;;;;;4988931;28;20038;-78
2022/11/28 13:30:21;;;;;;;13.77;11.45;;;;;;;;;;4979065;28;20105;-78
2022/11/28 13:33:05;;;;;;;;;;;;;;;;;;4984906;28;20074;-76
2022/11/28 13:35:31;;;;;;;12.63;11.18;;;;;;;;;;4985007;28;19929;-77
2022/11/28 13:38:30;;;;;;;15.30;11.60;;;;;;;;;;4976211;28;20038;-77
2022/11/28 13:41:05;;;;;;;;;;;;;;;;;;4975143;28;20075;-78
2022/11/28 13:44:01;;;;;;;13.18;11.45;;;;;;;;;;4975727;28;19925;-77
2022/11/28 13:46:28;;;;;;;13.70;12.18;;;;;;;;;;4976206;28;20545;-77
2022/11/28 13:49:00;;;;;;;24.92;15.55;;;;;;;;;;4968724;28;20053;-78
2022/11/28 13:51:29;;;;;;;17.30;13.45;;;;;;;;;;4976568;28;20039;-78
2022/11/28 13:54:16;;;;;;;19.33;13.52;;;;;;;;;;4975679;28;20518;-79
2022/11/28 13:57:01;;;;;;;16.13;12.68;;;;;;;;;;4996887;28;20150;-79
2022/11/28 13:59:27;;;;;;;14.52;11.93;;;;;;;;;;4975619;28;20081;-78
2022/11/28 14:01:58;;;;;;;12.48;11.27;;;;;;;;;;4977447;28;20407;-78
2022/11/28 14:04:26;;;;;;;11.80;10.43;;;;;;;;;;4982476;28;20058;-77
2022/11/28 14:07:00;;;;;;;14.63;12.25;;;;;;;;;;4986715;28;20078;-77
2022/11/28 14:09:43;;;;;;;19.40;13.35;;;;;;;;;;4985620;28;20042;-77
2022/11/28 14:12:33;;;;;;;13.43;10.63;;;;;;;;;;4977637;28;20043;-77
2022/11/28 14:15:02;;;;;;;13.70;10.38;;;;;;;;;;4977503;28;20099;-77
2022/11/28 14:17:45;;;;;;;14.80;10.73;;;;;;;;;;4974974;28;20034;-78
2022/11/28 14:20:23;;;;;;;12.10;10.98;;;;;;;;;;4979790;28;20101;-78
2022/11/28 14:23:12;;;;;;;13.93;12.52;;;;;;;;;;4977374;28;20042;-77
2022/11/28 14:25:43;;;;;;;13.43;11.13;;;;;;;;;;4977570;28;20037;-78
2022/11/28 14:28:35;;;;;;;10.45;9.40;;;;;;;;;;4977827;28;20289;-78
2022/11/28 14:31:15;;;;;;;11.10;10.02;;;;;;;;;;4996406;28;20823;-78
2022/11/28 14:33:44;;;;;;;12.20;10.93;;;;;;;;;;4973558;28;20134;-77
2022/11/28 14:36:40;;;;;;;14.07;11.90;;;;;;;;;;4981020;28;20645;-78
2022/11/28 14:39:15;;;;;;;13.32;12.02;;;;;;;;;;4986680;28;20047;-77
2022/11/28 14:42:04;;;;;;;17.48;14.43;;;;;;;;;;4980894;28;20038;-78
2022/11/28 14:44:49;;;;;;;12.30;11.00;;;;;;;;;;4976531;28;20074;-79
2022/11/28 14:47:22;;;;;;;16.20;13.00;;;;;;;;;;4974660;28;20608;-78
2022/11/28 14:49:48;;;;;;;40.28;29.77;;;;;;;;;;4974165;28;20117;-76
2022/11/28 14:52:24;;;;;;;12.40;10.93;;;;;;;;;;4974465;28;20034;-78
2022/11/28 14:54:52;;;;;;;24.00;16.35;;;;;;;;;;4983805;28;20048;-77
2022/11/28 14:57:24;;;;;;;16.00;13.95;;;;;;;;;;4974034;28;20101;-78
2022/11/28 14:59:51;;;;;;;13.65;12.18;;;;;;;;;;4975268;28;20050;-78
2022/11/28 15:02:43;;;;;;;17.00;12.50;;;;;;;;;;4989502;28;20465;-79